Time;durP1;ratioP1;P1;durP2;ratioP2;P2;SDS_P1;SDS_P2;PMS_P1;PMS_P2;Temp;Humidity;BMP_temperature;BMP_pressure;BME280_temperature;BME280_humidity;BME280_pressure;Samples;Min_cycle;Max_cycle;Signal;HPM_P1;HPM_P2
2022/09/14 00:00:40;;;;;;;;;;;22.50;62.50;;;;;;4462550;32;19966;-68
2022/09/14 00:03:06;;;;;;;;;;;22.50;62.60;;;;;;4461164;32;19983;-68
2022/09/14 00:05:36;;;;;;;;;;;22.50;62.60;;;;;;4447306;32;19970;-68
2022/09/14 00:08:02;;;;;;;;;;;22.50;62.60;;;;;;4462388;32;19985;-69
2022/09/14 00:10:28;;;;;;;;;;;22.50;62.60;;;;;;4462171;32;20119;-69
2022/09/14 00:12:54;;;;;;;;;;;22.50;62.60;;;;;;4448111;32;19998;-67
2022/09/14 00:15:20;;;;;;;;;;;22.50;62.60;;;;;;4462623;32;20049;-69
2022/09/14 00:17:46;;;;;;;;;;;22.50;62.60;;;;;;4462254;32;20292;-69
2022/09/14 00:20:12;;;;;;;;;;;22.50;62.60;;;;;;4462218;32;19982;-69
2022/09/14 00:22:38;;;;;;;;;;;22.50;62.60;;;;;;4447785;32;19974;-68
2022/09/14 00:25:04;;;;;;;;;;;22.50;62.50;;;;;;4462194;32;20005;-68
2022/09/14 00:27:30;;;;;;;;;;;22.50;62.60;;;;;;4462121;32;20372;-68
2022/09/14 00:29:56;;;;;;;;;;;22.50;62.60;;;;;;4461749;32;19970;-68
2022/09/14 00:32:22;;;;;;;;;;;22.50;62.60;;;;;;4462118;32;20052;-68
2022/09/14 00:34:47;;;;;;;;;;;22.50;62.50;;;;;;4461985;32;19962;-68
2022/09/14 00:37:13;;;;;;;;;;;22.50;62.60;;;;;;4462010;32;19958;-68
2022/09/14 00:39:39;;;;;;;;;;;22.50;62.60;;;;;;4462015;32;20047;-68
2022/09/14 00:42:05;;;;;;;;;;;22.50;62.60;;;;;;4461831;32;20092;-68
2022/09/14 00:44:30;;;;;;;;;;;22.50;62.60;;;;;;4462132;32;20001;-68
2022/09/14 00:46:58;;;;;;;;;;;22.50;62.60;;;;;;4462091;32;19978;-68
2022/09/14 00:49:37;;;;;;;;;;;22.50;62.60;;;;;;4461813;32;20300;-68
2022/09/14 00:52:03;;;;;;;;;;;22.40;62.60;;;;;;4461708;32;20092;-68
2022/09/14 00:54:28;;;;;;;;;;;22.40;62.50;;;;;;4461721;32;20305;-68
2022/09/14 00:56:56;;;;;;;;;;;22.40;62.60;;;;;;4461696;32;19997;-68
2022/09/14 00:59:24;;;;;;;;;;;22.40;62.60;;;;;;4447717;32;19977;-69
2022/09/14 01:01:50;;;;;;;;;;;22.40;62.50;;;;;;4461446;32;19974;-69
2022/09/14 01:04:16;;;;;;;;;;;22.40;62.60;;;;;;4461663;32;20036;-68
2022/09/14 01:06:47;;;;;;;;;;;22.40;62.60;;;;;;4461311;32;19972;-68
2022/09/14 01:09:22;;;;;;;;;;;22.40;62.60;;;;;;4461528;32;20108;-68
2022/09/14 01:12:07;;;;;;;;;;;22.40;62.60;;;;;;4461487;32;19982;-68
2022/09/14 01:14:41;;;;;;;;;;;22.40;62.60;;;;;;4461501;32;20292;-68
2022/09/14 01:17:11;;;;;;;;;;;22.40;62.60;;;;;;4461192;32;19977;-69
2022/09/14 01:19:55;;;;;;;;;;;22.40;62.60;;;;;;4461657;32;19989;-68
2022/09/14 01:22:31;;;;;;;;;;;22.40;62.60;;;;;;4461228;32;20304;-68
2022/09/14 01:25:05;;;;;;;;;;;22.40;62.60;;;;;;4461466;32;20105;-68
2022/09/14 01:27:31;;;;;;;;;;;22.40;62.60;;;;;;4461611;32;20482;-69
2022/09/14 01:30:05;;;;;;;;;;;22.40;62.60;;;;;;4447395;32;19978;-69
2022/09/14 01:32:37;;;;;;;;;;;22.40;62.60;;;;;;4461321;32;19977;-68
2022/09/14 01:35:07;;;;;;;;;;;22.40;62.60;;;;;;4461226;32;19985;-68
2022/09/14 01:37:39;;;;;;;;;;;22.40;62.60;;;;;;4461264;32;19980;-68
2022/09/14 01:40:25;;;;;;;;;;;22.30;62.50;;;;;;4461270;32;20002;-69
2022/09/14 01:42:55;;;;;;;;;;;22.40;62.60;;;;;;4447053;32;19970;-68
2022/09/14 01:45:21;;;;;;;;;;;22.30;62.50;;;;;;4461150;32;19989;-69
2022/09/14 01:47:54;;;;;;;;;;;22.30;62.50;;;;;;4460873;32;19966;-68
2022/09/14 01:50:25;;;;;;;;;;;22.40;62.60;;;;;;4460878;32;20047;-68
2022/09/14 01:52:56;;;;;;;;;;;22.30;62.60;;;;;;4460924;32;19988;-68
2022/09/14 01:55:27;;;;;;;;;;;22.30;62.60;;;;;;4461048;32;20442;-69
2022/09/14 01:58:03;;;;;;;;;;;22.30;62.60;;;;;;4460796;32;20116;-69
2022/09/14 02:00:29;;;;;;;;;;;22.30;62.60;;;;;;4447091;32;20394;-68
2022/09/14 02:02:59;;;;;;;;;;;22.30;62.60;;;;;;4460738;32;20020;-68
2022/09/14 02:05:37;;;;;;;;;;;22.30;62.50;;;;;;4461065;32;20140;-69
2022/09/14 02:08:03;;;;;;;;;;;22.30;62.60;;;;;;4461019;32;19962;-69
2022/09/14 02:10:29;;;;;;;;;;;22.30;62.60;;;;;;4461220;32;20040;-68
2022/09/14 02:12:55;;;;;;;;;;;22.30;62.60;;;;;;4461012;32;20386;-68
2022/09/14 02:15:21;;;;;;;;;;;22.30;62.60;;;;;;4461221;32;19992;-69
2022/09/14 02:17:47;;;;;;;;;;;22.30;62.60;;;;;;4461139;32;20032;-68
2022/09/14 02:20:17;;;;;;;;;;;22.30;62.60;;;;;;4460648;32;19978;-69
2022/09/14 02:22:44;;;;;;;;;;;22.30;62.60;;;;;;4461160;32;20550;-68
2022/09/14 02:25:10;;;;;;;;;;;22.30;62.60;;;;;;4460899;32;20048;-69
2022/09/14 02:27:36;;;;;;;;;;;22.30;62.60;;;;;;4461039;32;19984;-68
2022/09/14 02:30:02;;;;;;;;;;;22.30;62.60;;;;;;4463867;32;19977;-68
2022/09/14 02:32:28;;;;;;;;;;;22.30;62.60;;;;;;4463814;32;20432;-69
2022/09/14 02:34:54;;;;;;;;;;;22.30;62.60;;;;;;4463707;32;20111;-68
2022/09/14 02:37:25;;;;;;;;;;;22.20;62.60;;;;;;4463713;32;19958;-68
2022/09/14 02:40:00;;;;;;;;;;;22.20;62.60;;;;;;4463750;32;20160;-68
2022/09/14 02:42:36;;;;;;;;;;;22.20;62.60;;;;;;4463674;32;20420;-68
2022/09/14 02:45:20;;;;;;;;;;;22.20;62.60;;;;;;4463712;32;19974;-68
2022/09/14 02:47:48;;;;;;;;;;;22.20;62.60;;;;;;4463602;32;19966;-68
2022/09/14 02:50:19;;;;;;;;;;;22.20;62.60;;;;;;4463382;32;19989;-68
2022/09/14 02:52:45;;;;;;;;;;;22.20;62.60;;;;;;4463341;32;20022;-68
2022/09/14 02:55:13;;;;;;;;;;;22.20;62.60;;;;;;4463583;32;19958;-68
2022/09/14 02:57:57;;;;;;;;;;;22.20;62.60;;;;;;4463436;32;20016;-68
2022/09/14 03:00:22;;;;;;;;;;;22.20;62.60;;;;;;4463541;32;20069;-68
2022/09/14 03:02:48;;;;;;;;;;;22.20;62.60;;;;;;4463350;32;19989;-68
2022/09/14 03:05:14;;;;;;;;;;;22.20;62.60;;;;;;4463348;32;19954;-69
2022/09/14 03:07:39;;;;;;;;;;;22.20;62.70;;;;;;4463085;32;20013;-68
2022/09/14 03:10:05;;;;;;;;;;;22.20;62.60;;;;;;4463297;32;19981;-68
2022/09/14 03:12:31;;;;;;;;;;;22.20;62.60;;;;;;4449007;32;19966;-68
2022/09/14 03:14:57;;;;;;;;;;;22.20;62.60;;;;;;4463208;32;19966;-68
2022/09/14 03:17:22;;;;;;;;;;;22.20;62.60;;;;;;4463364;32;19966;-68
2022/09/14 03:19:48;;;;;;;;;;;22.20;62.80;;;;;;4463123;32;20402;-68
2022/09/14 03:22:14;;;;;;;;;;;22.20;62.70;;;;;;4462952;32;20043;-69
2022/09/14 03:24:40;;;;;;;;;;;22.20;62.70;;;;;;4463047;32;19966;-68
2022/09/14 03:27:06;;;;;;;;;;;22.20;62.70;;;;;;4463863;32;19993;-68
2022/09/14 03:29:32;;;;;;;;;;;22.20;62.70;;;;;;4463019;32;20071;-68
2022/09/14 03:31:57;;;;;;;;;;;22.20;62.70;;;;;;4463265;32;19966;-68
2022/09/14 03:34:23;;;;;;;;;;;22.20;62.70;;;;;;4448968;32;20311;-68
2022/09/14 03:36:49;;;;;;;;;;;22.20;62.70;;;;;;4462613;32;19974;-68
2022/09/14 03:44:25;;;;;;;;;;;22.20;62.70;;;;;;4633578;26;20057;-72
2022/09/14 03:46:51;;;;;;;;;;;22.20;62.70;;;;;;4461683;32;19978;-76
2022/09/14 03:49:16;;;;;;;;;;;22.10;62.70;;;;;;4462345;32;20387;-77
2022/09/14 03:51:42;;;;;;;;;;;22.10;62.60;;;;;;4462232;32;19982;-77
2022/09/14 03:54:08;;;;;;;;;;;22.10;62.70;;;;;;4462527;32;20292;-78
2022/09/14 03:56:34;;;;;;;;;;;22.10;62.70;;;;;;4462321;32;20472;-77
2022/09/14 03:58:59;;;;;;;;;;;22.20;62.70;;;;;;4462486;32;19986;-77
2022/09/14 04:01:25;;;;;;;;;;;22.10;62.70;;;;;;4462372;32;19978;-77
2022/09/14 04:03:51;;;;;;;;;;;22.10;62.70;;;;;;4462441;32;19978;-77
2022/09/14 04:06:17;;;;;;;;;;;22.10;62.70;;;;;;4462438;32;19962;-77
2022/09/14 04:08:44;;;;;;;;;;;22.10;62.70;;;;;;4462447;32;20006;-77
2022/09/14 04:11:09;;;;;;;;;;;22.10;62.70;;;;;;4462230;32;20490;-77
2022/09/14 04:13:36;;;;;;;;;;;22.10;62.70;;;;;;4462079;32;20044;-77
2022/09/14 04:16:01;;;;;;;;;;;22.10;62.70;;;;;;4462109;32;19974;-77
2022/09/14 04:18:27;;;;;;;;;;;22.10;62.70;;;;;;4462519;32;19963;-77
2022/09/14 04:20:54;;;;;;;;;;;22.10;62.70;;;;;;4448330;32;20002;-77
2022/09/14 04:23:19;;;;;;;;;;;22.10;62.70;;;;;;4462306;32;20418;-77
2022/09/14 04:25:46;;;;;;;;;;;22.10;62.70;;;;;;4462127;32;20501;-77
2022/09/14 04:28:12;;;;;;;;;;;22.10;62.70;;;;;;4462078;32;19958;-77
2022/09/14 04:30:37;;;;;;;;;;;22.10;62.70;;;;;;4448036;32;19975;-77
2022/09/14 04:33:03;;;;;;;;;;;22.10;62.70;;;;;;4462249;32;20010;-77
2022/09/14 04:35:29;;;;;;;;;;;22.10;62.70;;;;;;4462141;32;20276;-77
2022/09/14 04:37:55;;;;;;;;;;;22.10;62.70;;;;;;4461974;32;19958;-77
2022/09/14 04:40:20;;;;;;;;;;;22.10;62.70;;;;;;4447936;32;20407;-77
2022/09/14 04:42:46;;;;;;;;;;;22.10;62.70;;;;;;4462033;32;20040;-77
2022/09/14 04:45:12;;;;;;;;;;;22.10;63.70;;;;;;4461901;32;19962;-77
2022/09/14 04:47:38;;;;;;;;;;;22.10;62.70;;;;;;4462168;32;20132;-77
2022/09/14 04:50:04;;;;;;;;;;;22.10;62.80;;;;;;4461642;32;20002;-77
2022/09/14 04:52:30;;;;;;;;;;;22.10;62.80;;;;;;4461468;32;19982;-77
2022/09/14 04:54:55;;;;;;;;;;;22.10;62.70;;;;;;4461987;32;20044;-77
2022/09/14 04:57:21;;;;;;;;;;;22.10;62.70;;;;;;4447681;32;20049;-77
2022/09/14 04:59:47;;;;;;;;;;;22.10;62.70;;;;;;4461753;32;19980;-77
2022/09/14 05:02:13;;;;;;;;;;;22.00;62.70;;;;;;4461422;32;19978;-77
2022/09/14 05:04:39;;;;;;;;;;;22.00;62.70;;;;;;4461673;32;20443;-77
2022/09/14 05:07:04;;;;;;;;;;;22.00;62.70;;;;;;4447642;32;19994;-77
2022/09/14 05:09:30;;;;;;;;;;;22.00;62.80;;;;;;4461479;32;20045;-77
2022/09/14 05:11:56;;;;;;;;;;;22.00;62.80;;;;;;4461466;32;19976;-77
2022/09/14 05:14:21;;;;;;;;;;;22.00;62.80;;;;;;4461412;32;20052;-77
2022/09/14 05:16:47;;;;;;;;;;;22.00;62.70;;;;;;4461335;32;20044;-77
2022/09/14 05:19:14;;;;;;;;;;;22.00;62.80;;;;;;4461201;32;20324;-77
2022/09/14 05:21:40;;;;;;;;;;;22.00;62.80;;;;;;4461423;32;19966;-77
2022/09/14 05:24:11;;;;;;;;;;;22.00;62.80;;;;;;4461219;32;19993;-77
2022/09/14 05:26:38;;;;;;;;;;;22.00;62.80;;;;;;4461027;32;19984;-77
2022/09/14 05:29:04;;;;;;;;;;;22.00;62.80;;;;;;4461339;32;19998;-77
2022/09/14 05:31:30;;;;;;;;;;;22.00;62.80;;;;;;4461323;32;20391;-77
2022/09/14 05:33:56;;;;;;;;;;;22.00;62.80;;;;;;4460953;32;20021;-77
2022/09/14 05:36:22;;;;;;;;;;;22.00;62.90;;;;;;4461242;32;19986;-77
2022/09/14 05:38:48;;;;;;;;;;;22.00;62.80;;;;;;4461502;32;20275;-77
2022/09/14 05:41:14;;;;;;;;;;;22.00;62.80;;;;;;4461461;32;20009;-77
2022/09/14 05:43:40;;;;;;;;;;;22.00;62.80;;;;;;4460697;32;19978;-77
2022/09/14 05:46:08;;;;;;;;;;;22.00;62.90;;;;;;4461223;32;19978;-77
2022/09/14 05:48:34;;;;;;;;;;;22.00;62.90;;;;;;4461411;32;20018;-77
2022/09/14 05:51:06;;;;;;;;;;;22.00;62.90;;;;;;4447210;32;20300;-77
2022/09/14 05:53:32;;;;;;;;;;;22.00;62.90;;;;;;4461286;32;19994;-77
2022/09/14 05:55:59;;;;;;;;;;;22.00;62.90;;;;;;4461099;32;20052;-77
2022/09/14 05:58:25;;;;;;;;;;;22.00;62.90;;;;;;4461011;32;19978;-79
2022/09/14 06:00:51;;;;;;;;;;;22.00;62.90;;;;;;4446881;32;19978;-78
2022/09/14 06:03:16;;;;;;;;;;;22.00;62.90;;;;;;4463659;32;19980;-79
2022/09/14 06:05:42;;;;;;;;;;;22.00;62.90;;;;;;4464290;32;20022;-78
2022/09/14 06:08:08;;;;;;;;;;;22.00;62.90;;;;;;4464216;32;19969;-78
2022/09/14 06:10:33;;;;;;;;;;;22.00;62.90;;;;;;4463848;32;20350;-78
2022/09/14 06:12:59;;;;;;;;;;;22.00;62.90;;;;;;4464123;32;20107;-77
2022/09/14 06:15:25;;;;;;;;;;;22.00;62.90;;;;;;4464058;32;19962;-78
2022/09/14 06:17:51;;;;;;;;;;;22.00;62.90;;;;;;4464011;32;20379;-77
2022/09/14 06:20:17;;;;;;;;;;;22.00;62.90;;;;;;4463888;32;20021;-78
2022/09/14 06:22:43;;;;;;;;;;;22.00;62.90;;;;;;4464035;32;19965;-79
2022/09/14 06:25:10;;;;;;;;;;;22.00;63.00;;;;;;4464016;32;20142;-79
2022/09/14 06:27:37;;;;;;;;;;;21.90;62.90;;;;;;4464086;32;19974;-80
2022/09/14 06:30:03;;;;;;;;;;;22.00;62.60;;;;;;4464174;32;19977;-81
2022/09/14 06:32:29;;;;;;;;;;;21.90;62.50;;;;;;4463750;32;20096;-79
2022/09/14 06:34:55;;;;;;;;;;;21.90;62.60;;;;;;4463384;32;19966;-78
2022/09/14 06:37:21;;;;;;;;;;;21.90;62.50;;;;;;4463924;32;19978;-78
2022/09/14 06:39:46;;;;;;;;;;;21.90;62.60;;;;;;4463819;32;20036;-78
2022/09/14 06:42:12;;;;;;;;;;;21.90;62.60;;;;;;4463616;32;19966;-81
2022/09/14 06:44:39;;;;;;;;;;;21.90;62.70;;;;;;4463441;32;20045;-78
2022/09/14 06:47:05;;;;;;;;;;;21.90;62.80;;;;;;4463782;32;20009;-78
2022/09/14 06:49:30;;;;;;;;;;;21.90;62.80;;;;;;4463949;32;19962;-81
2022/09/14 06:51:56;;;;;;;;;;;21.90;62.80;;;;;;4463732;32;20013;-79
2022/09/14 06:54:22;;;;;;;;;;;21.90;63.00;;;;;;4463892;32;19978;-78
2022/09/14 06:56:47;;;;;;;;;;;21.90;63.00;;;;;;4449617;32;19958;-78
2022/09/14 06:59:14;;;;;;;;;;;21.90;63.00;;;;;;4463497;32;20020;-78
2022/09/14 07:01:40;;;;;;;;;;;21.90;63.10;;;;;;4449475;32;20056;-79
2022/09/14 07:04:07;;;;;;;;;;;21.90;63.10;;;;;;4463466;32;20100;-80
2022/09/14 07:06:59;;;;;;;;;;;21.90;63.20;;;;;;4463417;32;19967;-79
2022/09/14 07:09:25;;;;;;;;;;;21.90;63.00;;;;;;4459612;32;20486;-79
2022/09/14 07:11:50;;;;;;;;;;;21.90;63.10;;;;;;4449498;32;19978;-80
2022/09/14 07:14:16;;;;;;;;;;;21.90;63.00;;;;;;4462655;32;19958;-77
2022/09/14 07:16:42;;;;;;;;;;;21.90;63.20;;;;;;4463337;32;19954;-79
2022/09/14 07:19:12;;;;;;;;;;;21.90;63.00;;;;;;4464436;32;20279;-78
2022/09/14 07:21:37;;;;;;;;;;;21.90;62.90;;;;;;4464148;32;20092;-76
2022/09/14 07:24:04;;;;;;;;;;;21.90;62.80;;;;;;4463816;32;20064;-84
2022/09/14 07:26:38;;;;;;;;;;;21.90;62.80;;;;;;4463518;32;20032;-83
2022/09/14 07:29:06;;;;;;;;;;;21.90;62.80;;;;;;4463968;32;20107;-83
2022/09/14 07:31:33;;;;;;;;;;;22.00;63.30;;;;;;4463425;32;19989;-84
2022/09/14 07:34:00;;;;;;;;;;;21.90;63.00;;;;;;4463528;32;19985;-84
2022/09/14 07:36:26;;;;;;;;;;;21.90;63.00;;;;;;4463500;32;20310;-82
2022/09/14 07:38:52;;;;;;;;;;;21.90;62.80;;;;;;4463554;32;19970;-81
2022/09/14 07:41:19;;;;;;;;;;;22.00;62.80;;;;;;4462920;32;20374;-79
2022/09/14 07:43:51;;;;;;;;;;;21.90;62.80;;;;;;4463686;32;20418;-80
2022/09/14 07:46:17;;;;;;;;;;;21.90;62.70;;;;;;4464704;32;19970;-82
2022/09/14 07:48:43;;;;;;;;;;;22.00;62.80;;;;;;4464482;32;19978;-84
2022/09/14 07:51:09;;;;;;;;;;;22.00;62.60;;;;;;4464019;32;19993;-84
2022/09/14 07:53:41;;;;;;;;;;;22.00;62.40;;;;;;4463718;32;20323;-81
2022/09/14 07:56:07;;;;;;;;;;;22.00;62.50;;;;;;4464402;32;19985;-83
2022/09/14 07:58:33;;;;;;;;;;;22.10;62.40;;;;;;4463781;32;20325;-78
2022/09/14 08:01:03;;;;;;;;;;;22.10;62.30;;;;;;4463712;32;20016;-83
2022/09/14 08:03:30;;;;;;;;;;;22.10;62.20;;;;;;4464522;32;19978;-83
2022/09/14 08:05:57;;;;;;;;;;;22.10;62.30;;;;;;4465234;32;19970;-83
2022/09/14 08:08:23;;;;;;;;;;;22.10;62.10;;;;;;4464420;32;20052;-82
2022/09/14 08:10:49;;;;;;;;;;;22.10;61.90;;;;;;4449542;32;19978;-83
2022/09/14 08:13:14;;;;;;;;;;;22.10;61.70;;;;;;4449673;32;19986;-81
2022/09/14 08:15:40;;;;;;;;;;;22.10;61.90;;;;;;4463360;32;20318;-81
2022/09/14 08:18:06;;;;;;;;;;;22.10;61.70;;;;;;4463790;32;19967;-81
2022/09/14 08:20:32;;;;;;;;;;;22.20;61.80;;;;;;4463328;32;20032;-81
2022/09/14 08:22:58;;;;;;;;;;;22.20;61.90;;;;;;4463303;32;19970;-81
2022/09/14 08:25:24;;;;;;;;;;;22.20;61.70;;;;;;4448675;32;20073;-80
2022/09/14 08:27:50;;;;;;;;;;;22.20;61.70;;;;;;4463260;32;19982;-82
2022/09/14 08:30:17;;;;;;;;;;;22.20;61.70;;;;;;4463584;32;20010;-83
2022/09/14 08:32:43;;;;;;;;;;;22.20;61.60;;;;;;4463873;32;20473;-80
2022/09/14 08:35:09;;;;;;;;;;;22.20;61.50;;;;;;4463032;32;20312;-83
2022/09/14 08:37:35;;;;;;;;;;;22.20;61.60;;;;;;4462759;32;20029;-78
2022/09/14 08:40:01;;;;;;;;;;;22.20;61.60;;;;;;4463399;32;19978;-79
2022/09/14 08:42:26;;;;;;;;;;;22.20;61.60;;;;;;4463074;32;20088;-78
2022/09/14 08:46:10;;;;;;;;;;;22.20;61.40;;;;;;4554368;31;20028;-63
2022/09/14 08:48:39;;;;;;;;;;;22.20;61.40;;;;;;4545284;31;19981;-65
2022/09/14 08:51:05;;;;;;;;;;;22.20;61.40;;;;;;4546087;31;20148;-65
2022/09/14 08:53:33;;;;;;;;;;;22.20;61.10;;;;;;4546748;31;20111;-64
2022/09/14 08:56:01;;;;;;;;;;;22.20;61.30;;;;;;4546648;31;20040;-64
2022/09/14 08:58:33;;;;;;;;;;;22.20;61.20;;;;;;4546114;31;20028;-64
2022/09/14 09:01:18;;;;;;;;;;;22.20;61.20;;;;;;4546206;31;20518;-63
2022/09/14 09:04:02;;;;;;;;;;;22.20;61.10;;;;;;4546302;31;20035;-63
2022/09/14 09:06:33;;;;;;;;;;;22.30;61.10;;;;;;4546322;31;20162;-65
2022/09/14 09:09:19;;;;;;;;;;;22.30;61.20;;;;;;4544158;31;20040;-65
2022/09/14 09:11:47;;;;;;;;;;;22.30;61.30;;;;;;4546435;31;20440;-63
2022/09/14 09:14:16;;;;;;;;;;;22.30;61.20;;;;;;4546444;31;19977;-63
2022/09/14 09:16:42;;;;;;;;;;;22.30;61.30;;;;;;4547097;31;20036;-64
2022/09/14 09:19:12;;;;;;;;;;;22.30;61.30;;;;;;4546055;31;20081;-64
2022/09/14 09:21:41;;;;;;;;;;;22.30;61.10;;;;;;4544950;31;20040;-63
2022/09/14 09:24:16;;;;;;;;;;;22.30;61.10;;;;;;4545312;31;20060;-64
2022/09/14 09:26:41;;;;;;;;;;;22.30;61.00;;;;;;4543771;31;20420;-64
2022/09/14 09:29:08;;;;;;;;;;;22.30;60.80;;;;;;4546484;31;20032;-64
2022/09/14 09:31:35;;;;;;;;;;;22.30;61.00;;;;;;4546257;31;19992;-64
2022/09/14 09:34:01;;;;;;;;;;;22.30;60.90;;;;;;4546205;31;20032;-64
2022/09/14 09:36:30;;;;;;;;;;;22.30;60.80;;;;;;4553152;31;20044;-64
2022/09/14 09:38:58;;;;;;;;;;;22.30;60.90;;;;;;4555836;31;20033;-64
2022/09/14 09:41:26;;;;;;;;;;;22.30;60.90;;;;;;4554450;31;20039;-64
2022/09/14 09:43:55;;;;;;;;;;;22.30;60.90;;;;;;4547272;31;20224;-64
2022/09/14 09:46:21;;;;;;;;;;;22.30;60.90;;;;;;4545105;31;20083;-64
2022/09/14 09:48:48;;;;;;;;;;;22.30;60.80;;;;;;4545801;31;19991;-64
2022/09/14 09:51:15;;;;;;;;;;;22.30;60.80;;;;;;4543609;31;20032;-63
2022/09/14 09:53:51;;;;;;;;;;;22.30;60.70;;;;;;4544934;31;20220;-63
2022/09/14 09:56:29;;;;;;;;;;;22.30;60.70;;;;;;4541174;31;20040;-64
2022/09/14 09:58:55;;;;;;;;;;;22.30;60.70;;;;;;4546165;31;20044;-65
2022/09/14 10:01:25;;;;;;;;;;;22.40;60.90;;;;;;4546840;31;20063;-64
2022/09/14 10:04:05;;;;;;;;;;;22.30;60.70;;;;;;4538725;31;20036;-64
2022/09/14 10:06:31;;;;;;;;;;;22.30;60.60;;;;;;4533267;31;20039;-64
2022/09/14 10:08:57;;;;;;;;;;;22.30;60.70;;;;;;4532880;31;20125;-64
2022/09/14 10:11:44;;;;;;;;;;;22.30;60.70;;;;;;4533632;31;20612;-64
2022/09/14 10:14:39;;;;;;;;;;;22.30;60.70;;;;;;4518830;31;20139;-64
2022/09/14 10:17:21;;;;;;;;;;;22.30;60.70;;;;;;4488807;31;25684;-64
2022/09/14 10:19:48;;;;;;;;;;;22.40;60.70;;;;;;4501929;31;20449;-64
2022/09/14 10:22:29;;;;;;;;;;;22.40;60.70;;;;;;4499801;31;20118;-64
2022/09/14 10:25:01;;;;;;;;;;;22.40;60.50;;;;;;4499066;31;20413;-64
2022/09/14 10:27:38;;;;;;;;;;;22.40;60.40;;;;;;4500387;31;19993;-65
2022/09/14 10:30:15;;;;;;;;;;;22.40;60.70;;;;;;4507687;31;20056;-64
2022/09/14 10:32:44;;;;;;;;;;;22.40;60.80;;;;;;4490722;31;20171;-64
2022/09/14 10:35:10;;;;;;;;;;;22.40;61.60;;;;;;4507361;31;20516;-63
2022/09/14 10:37:40;;;;;;;;;;;22.40;60.50;;;;;;4499469;31;20397;-65
2022/09/14 10:40:15;;;;;;;;;;;22.40;60.50;;;;;;4501973;31;20042;-64
2022/09/14 10:42:52;;;;;;;;;;;22.40;60.40;;;;;;4500692;31;20039;-64
2022/09/14 10:45:26;;;;;;;;;;;22.40;60.40;;;;;;4502748;31;20190;-63
2022/09/14 10:47:55;;;;;;;;;;;22.40;60.30;;;;;;4503655;31;20117;-64
2022/09/14 10:50:43;;;;;;;;;;;22.40;60.30;;;;;;4504929;31;20067;-63
2022/09/14 10:53:15;;;;;;;;;;;22.40;60.10;;;;;;4496314;31;20143;-64
2022/09/14 10:56:04;;;;;;;;;;;22.40;59.80;;;;;;4504665;31;20037;-64
2022/09/14 10:58:30;;;;;;;;;;;22.50;59.90;;;;;;4495347;31;20047;-64
2022/09/14 11:01:02;;;;;;;;;;;22.40;60.00;;;;;;4505407;31;20024;-63
2022/09/14 11:03:44;;;;;;;;;;;22.50;59.80;;;;;;4503787;31;20021;-64
2022/09/14 11:06:18;;;;;;;;;;;22.50;59.90;;;;;;4500471;31;20059;-64
2022/09/14 11:08:45;;;;;;;;;;;22.50;59.80;;;;;;4498585;31;20032;-64
2022/09/14 11:11:17;;;;;;;;;;;22.50;59.80;;;;;;4500420;31;20043;-64
2022/09/14 11:14:02;;;;;;;;;;;22.50;59.80;;;;;;4499452;31;20509;-64
2022/09/14 11:16:49;;;;;;;;;;;22.50;59.60;;;;;;4500293;31;20021;-63
2022/09/14 11:19:15;;;;;;;;;;;22.50;59.60;;;;;;4500885;31;20044;-63
2022/09/14 11:21:46;;;;;;;;;;;22.50;59.60;;;;;;4498916;31;20009;-63
2022/09/14 11:24:21;;;;;;;;;;;22.50;59.50;;;;;;4500599;31;20081;-63
2022/09/14 11:26:54;;;;;;;;;;;22.50;59.40;;;;;;4499228;31;20037;-62
2022/09/14 11:29:26;;;;;;;;;;;22.50;59.30;;;;;;4495351;31;20060;-64
2022/09/14 11:32:04;;;;;;;;;;;22.60;59.40;;;;;;4498869;31;20213;-63
2022/09/14 11:34:35;;;;;;;;;;;22.60;58.80;;;;;;4497692;31;20080;-63
2022/09/14 11:37:07;;;;;;;;;;;22.60;58.60;;;;;;4498246;31;20053;-64
2022/09/14 11:39:35;;;;;;;;;;;22.60;58.50;;;;;;4497813;31;20053;-64
2022/09/14 11:42:33;;;;;;;;;;;22.70;58.50;;;;;;4498155;31;20033;-64
2022/09/14 11:45:05;;;;;;;;;;;22.70;58.40;;;;;;4480140;31;20036;-63
2022/09/14 11:47:36;;;;;;;;;;;22.70;58.30;;;;;;4496700;31;20041;-63
2022/09/14 11:50:02;;;;;;;;;;;22.70;58.50;;;;;;4498963;31;20125;-64
2022/09/14 11:52:30;;;;;;;;;;;22.70;58.30;;;;;;4497873;31;20029;-64
2022/09/14 11:54:58;;;;;;;;;;;22.70;58.30;;;;;;4498701;31;20040;-64
2022/09/14 11:57:25;;;;;;;;;;;22.70;58.20;;;;;;4498270;31;20170;-64
2022/09/14 11:59:52;;;;;;;;;;;22.70;57.80;;;;;;4498804;31;20044;-64
2022/09/14 12:02:21;;;;;;;;;;;22.70;57.90;;;;;;4498934;31;20044;-63
2022/09/14 12:05:09;;;;;;;;;;;22.80;58.10;;;;;;4497200;31;20025;-63
2022/09/14 12:07:41;;;;;;;;;;;22.80;58.10;;;;;;4498209;31;20171;-63
2022/09/14 12:10:13;;;;;;;;;;;22.80;58.20;;;;;;4500010;31;19985;-64
2022/09/14 12:12:40;;;;;;;;;;;22.80;58.00;;;;;;4498951;31;20041;-63
2022/09/14 12:15:24;;;;;;;;;;;22.80;58.30;;;;;;4501524;31;20465;-63
2022/09/14 12:17:50;;;;;;;;;;;22.80;58.30;;;;;;4496449;31;20095;-63
2022/09/14 12:20:39;;;;;;;;;;;22.80;58.30;;;;;;4500248;31;20048;-63
2022/09/14 12:23:25;;;;;;;;;;;22.80;58.30;;;;;;4494178;31;19994;-63
2022/09/14 12:26:04;;;;;;;;;;;22.80;58.50;;;;;;4495004;31;20051;-64
2022/09/14 12:28:38;;;;;;;;;;;22.80;58.50;;;;;;4500480;31;20047;-64
2022/09/14 12:31:04;;;;;;;;;;;22.70;58.50;;;;;;4490793;31;24466;-63
2022/09/14 12:33:32;;;;;;;;;;;22.70;58.70;;;;;;4500549;31;20041;-63
2022/09/14 12:36:01;;;;;;;;;;;22.70;58.80;;;;;;4499638;31;19981;-63
2022/09/14 12:38:30;;;;;;;;;;;22.70;58.80;;;;;;4498205;31;20487;-63
2022/09/14 12:41:00;;;;;;;;;;;22.70;58.90;;;;;;4498353;31;20037;-63
2022/09/14 12:43:28;;;;;;;;;;;22.70;58.80;;;;;;4496774;31;20039;-64
2022/09/14 12:46:06;;;;;;;;;;;22.70;58.80;;;;;;4501728;31;20056;-63
2022/09/14 12:48:44;;;;;;;;;;;22.70;58.80;;;;;;4500507;31;19989;-63
2022/09/14 12:51:25;;;;;;;;;;;22.70;58.80;;;;;;4498751;31;20041;-63
2022/09/14 12:54:21;;;;;;;;;;;22.70;58.90;;;;;;4500604;31;20037;-63
2022/09/14 12:56:59;;;;;;;;;;;22.70;59.00;;;;;;4466243;31;20461;-63
2022/09/14 12:59:28;;;;;;;;;;;22.70;59.00;;;;;;4498894;31;20032;-65
2022/09/14 13:01:54;;;;;;;;;;;22.70;58.80;;;;;;4496293;31;19978;-64
2022/09/14 13:04:24;;;;;;;;;;;22.70;58.90;;;;;;4496589;31;20100;-63
2022/09/14 13:06:51;;;;;;;;;;;22.70;58.90;;;;;;4499414;31;20040;-63
2022/09/14 13:09:19;;;;;;;;;;;22.70;59.00;;;;;;4497532;31;20028;-63
2022/09/14 13:11:46;;;;;;;;;;;22.70;59.10;;;;;;4498258;31;20386;-64
2022/09/14 13:14:17;;;;;;;;;;;22.70;59.10;;;;;;4499488;31;19985;-64
2022/09/14 13:16:45;;;;;;;;;;;22.70;59.10;;;;;;4501002;31;20078;-63
2022/09/14 13:19:27;;;;;;;;;;;22.70;59.10;;;;;;4499956;31;20044;-64
2022/09/14 13:21:54;;;;;;;;;;;22.70;59.20;;;;;;4498499;31;20539;-63
2022/09/14 13:24:26;;;;;;;;;;;22.70;59.20;;;;;;4498919;31;20029;-63
2022/09/14 13:26:53;;;;;;;;;;;22.70;59.20;;;;;;4497837;31;20029;-63
2022/09/14 13:29:19;;;;;;;;;;;22.70;59.20;;;;;;4497885;31;20021;-63
2022/09/14 13:31:45;;;;;;;;;;;22.70;59.20;;;;;;4495027;31;25138;-63
2022/09/14 13:34:19;;;;;;;;;;;22.80;59.10;;;;;;4501529;31;20032;-63
2022/09/14 13:36:45;;;;;;;;;;;22.80;59.30;;;;;;4503431;31;20131;-64
2022/09/14 13:39:30;;;;;;;;;;;22.80;59.20;;;;;;4500903;31;20343;-63
2022/09/14 13:41:57;;;;;;;;;;;22.80;59.30;;;;;;4499586;31;20033;-63
2022/09/14 13:44:33;;;;;;;;;;;22.80;59.40;;;;;;4500532;31;20441;-63
2022/09/14 13:47:01;;;;;;;;;;;22.80;59.40;;;;;;4499556;31;20774;-63
2022/09/14 13:49:27;;;;;;;;;;;22.80;59.30;;;;;;4500781;31;20045;-64
2022/09/14 13:52:13;;;;;;;;;;;22.80;59.30;;;;;;4498629;31;20021;-64
2022/09/14 13:54:40;;;;;;;;;;;22.80;59.00;;;;;;4499568;31;20043;-64
2022/09/14 13:57:16;;;;;;;;;;;22.80;58.90;;;;;;4501135;31;19981;-65
2022/09/14 14:00:00;;;;;;;;;;;22.80;58.80;;;;;;4499783;31;20069;-64
2022/09/14 14:02:26;;;;;;;;;;;22.80;58.90;;;;;;4500145;31;20033;-64
2022/09/14 14:04:52;;;;;;;;;;;22.80;59.00;;;;;;4498514;31;20021;-63
2022/09/14 14:07:30;;;;;;;;;;;22.80;58.80;;;;;;4500287;31;20040;-64
2022/09/14 14:09:57;;;;;;;;;;;22.80;59.00;;;;;;4501391;31;20458;-64
2022/09/14 14:12:25;;;;;;;;;;;22.80;58.70;;;;;;4499780;31;20111;-63
2022/09/14 14:14:54;;;;;;;;;;;22.80;58.80;;;;;;4500536;31;20068;-63
2022/09/14 14:17:20;;;;;;;;;;;22.80;58.60;;;;;;4498041;31;20044;-64
2022/09/14 14:19:46;;;;;;;;;;;22.80;58.50;;;;;;4501068;31;20370;-64
2022/09/14 14:22:30;;;;;;;;;;;22.80;58.60;;;;;;4497854;31;19997;-64
2022/09/14 14:24:57;;;;;;;;;;;22.80;58.60;;;;;;4500965;31;20059;-65
2022/09/14 14:27:28;;;;;;;;;;;22.80;58.70;;;;;;4500050;31;20001;-64
2022/09/14 14:29:53;;;;;;;;;;;22.80;58.70;;;;;;4498924;31;20071;-65
2022/09/14 14:32:19;;;;;;;;;;;22.80;58.50;;;;;;4494987;31;20565;-65
2022/09/14 14:34:45;;;;;;;;;;;22.80;58.50;;;;;;4506408;31;23284;-65